Time;durP1;ratioP1;P1;durP2;ratioP2;P2;SDS_P1;SDS_P2;PMS_P1;PMS_P2;Temp;Humidity;BMP_temperature;BMP_pressure;BME280_temperature;BME280_humidity;BME280_pressure;Samples;Min_cycle;Max_cycle;Signal;HPM_P1;HPM_P2
2022/04/07 00:00:13;;;;;;;;;;;9.60;95.20;;;;;;2101738;28;19920;-93
2022/04/07 00:01:32;;;;;;;;;;;9.60;95.10;;;;;;2109278;28;19920;-93
2022/04/07 00:02:51;;;;;;;;;;;9.60;95.20;;;;;;2104077;28;20311;-94
2022/04/07 00:04:10;;;;;;;;;;;9.60;95.20;;;;;;2107933;28;19979;-93
2022/04/07 00:05:30;;;;;;;;;;;9.50;95.20;;;;;;2094054;28;20007;-94
2022/04/07 00:06:49;;;;;;;;;;;9.50;95.20;;;;;;2092954;28;19983;-92
2022/04/07 00:08:08;;;;;;;;;;;9.50;95.20;;;;;;2097063;28;20007;-93
2022/04/07 00:09:27;;;;;;;;;;;9.50;95.20;;;;;;2098300;28;19917;-95
2022/04/07 00:10:48;;;;;;;;;;;9.50;95.30;;;;;;2084901;28;19921;-93
2022/04/07 00:12:07;;;;;;;;;;;9.40;95.30;;;;;;2094856;28;19912;-95
2022/04/07 00:13:27;;;;;;;;;;;9.40;95.30;;;;;;2095205;28;19913;-95
2022/04/07 00:14:46;;;;;;;;;;;9.40;95.30;;;;;;2094126;28;19948;-93
2022/04/07 00:16:06;;;;;;;;;;;9.40;95.40;;;;;;2096842;28;20462;-92
2022/04/07 00:17:27;;;;;;;;;;;9.40;95.40;;;;;;2094179;28;19924;-93
2022/04/07 00:18:46;;;;;;;;;;;9.40;95.40;;;;;;2092217;28;20354;-92
2022/04/07 00:20:05;;;;;;;;;;;9.40;95.40;;;;;;2095927;28;20390;-93
2022/04/07 00:21:25;;;;;;;;;;;9.40;95.40;;;;;;2105968;28;19919;-94
2022/04/07 00:22:44;;;;;;;;;;;9.40;95.40;;;;;;2095769;28;19916;-94
2022/04/07 00:24:03;;;;;;;;;;;9.40;95.40;;;;;;2085430;28;19913;-95
2022/04/07 00:25:23;;;;;;;;;;;9.40;95.40;;;;;;2095154;28;19960;-93
2022/04/07 00:26:42;;;;;;;;;;;9.40;95.40;;;;;;2098189;28;19955;-94
2022/04/07 00:28:01;;;;;;;;;;;9.40;95.40;;;;;;2088951;28;19916;-95
2022/04/07 00:29:20;;;;;;;;;;;9.40;95.40;;;;;;2081249;28;19933;-93
2022/04/07 00:30:40;;;;;;;;;;;9.40;95.40;;;;;;2089850;28;19920;-96
2022/04/07 00:32:03;;;;;;;;;;;9.40;95.40;;;;;;2101326;28;19913;-94
2022/04/07 00:33:22;;;;;;;;;;;9.40;95.50;;;;;;2100217;28;20003;-94
2022/04/07 00:34:46;;;;;;;;;;;9.30;95.40;;;;;;2101227;28;19972;-93
2022/04/07 00:36:05;;;;;;;;;;;9.40;95.50;;;;;;2100210;28;19913;-95
2022/04/07 00:37:24;;;;;;;;;;;9.40;95.50;;;;;;2101786;28;19917;-95
2022/04/07 00:38:44;;;;;;;;;;;9.30;95.50;;;;;;2099757;28;19924;-93
2022/04/07 00:40:04;;;;;;;;;;;9.30;95.50;;;;;;2096552;28;19916;-94
2022/04/07 00:41:23;;;;;;;;;;;9.30;95.50;;;;;;2103635;28;19908;-94
2022/04/07 00:42:43;;;;;;;;;;;9.30;95.50;;;;;;2094528;28;19917;-95
2022/04/07 00:44:02;;;;;;;;;;;9.30;95.50;;;;;;2094999;28;19921;-93
2022/04/07 00:45:22;;;;;;;;;;;9.30;95.50;;;;;;2093586;28;19916;-94
2022/04/07 00:46:41;;;;;;;;;;;9.30;95.50;;;;;;2093068;28;20391;-94
2022/04/07 00:48:00;;;;;;;;;;;9.30;95.50;;;;;;2094858;28;19920;-95
2022/04/07 00:49:20;;;;;;;;;;;9.30;95.50;;;;;;2094205;28;19917;-94
2022/04/07 00:50:39;;;;;;;;;;;9.30;95.50;;;;;;2100312;28;19916;-95
2022/04/07 00:51:58;;;;;;;;;;;9.30;95.50;;;;;;2102435;28;19920;-94
2022/04/07 00:53:18;;;;;;;;;;;9.30;95.50;;;;;;2103998;28;19961;-93
2022/04/07 00:54:37;;;;;;;;;;;9.30;95.50;;;;;;2102059;28;19936;-87
2022/04/07 00:56:00;;;;;;;;;;;9.30;95.50;;;;;;2095978;28;20043;-94
2022/04/07 00:57:19;;;;;;;;;;;9.30;95.50;;;;;;2094961;28;19909;-93
2022/04/07 00:58:38;;;;;;;;;;;9.30;95.50;;;;;;2108972;28;19909;-94
2022/04/07 00:59:58;;;;;;;;;;;9.30;95.50;;;;;;2109613;28;19916;-88
2022/04/07 01:01:24;;;;;;;;;;;9.30;95.50;;;;;;2094883;28;19916;-94
2022/04/07 01:02:44;;;;;;;;;;;9.30;95.50;;;;;;2093151;28;20390;-95
2022/04/07 01:04:03;;;;;;;;;;;9.30;95.50;;;;;;2093353;28;19913;-94
2022/04/07 01:05:23;;;;;;;;;;;9.30;95.50;;;;;;2096057;28;20011;-94
2022/04/07 01:06:43;;;;;;;;;;;9.30;95.40;;;;;;2098228;28;19917;-93
2022/04/07 01:08:03;;;;;;;;;;;9.30;95.40;;;;;;2107228;28;19912;-93
2022/04/07 01:09:22;;;;;;;;;;;9.40;95.40;;;;;;2105497;28;19921;-93
2022/04/07 01:10:42;;;;;;;;;;;9.40;95.40;;;;;;2098370;28;19917;-95
2022/04/07 01:12:01;;;;;;;;;;;9.40;95.30;;;;;;2094634;28;20374;-94
2022/04/07 01:13:21;;;;;;;;;;;9.40;95.30;;;;;;2087562;28;19917;-95
2022/04/07 01:14:57;;;;;;;;;;;9.40;95.30;;;;;;2097482;28;19916;-95
2022/04/07 01:16:16;;;;;;;;;;;9.40;95.30;;;;;;2100873;28;19912;-94
2022/04/07 01:17:36;;;;;;;;;;;9.40;95.20;;;;;;2101029;28;19909;-96
2022/04/07 01:18:59;;;;;;;;;;;9.40;95.20;;;;;;2085048;28;19925;-94
2022/04/07 01:20:18;;;;;;;;;;;9.40;95.20;;;;;;2086664;28;19917;-93
2022/04/07 01:21:37;;;;;;;;;;;9.40;95.20;;;;;;2086200;28;19917;-92
2022/04/07 01:22:57;;;;;;;;;;;9.40;95.30;;;;;;2082597;28;19951;-94
2022/04/07 01:24:18;;;;;;;;;;;9.40;95.20;;;;;;2083305;28;19917;-93
2022/04/07 01:25:38;;;;;;;;;;;9.40;95.20;;;;;;2081174;28;20307;-95
2022/04/07 01:26:57;;;;;;;;;;;9.40;95.20;;;;;;2082309;28;19917;-96
2022/04/07 01:28:16;;;;;;;;;;;9.30;95.20;;;;;;2100551;28;19976;-95
2022/04/07 01:29:36;;;;;;;;;;;9.30;95.20;;;;;;2093302;28;19960;-95
2022/04/07 01:30:55;;;;;;;;;;;9.30;95.30;;;;;;2092262;28;19995;-95
2022/04/07 01:32:16;;;;;;;;;;;9.30;95.40;;;;;;2091036;28;19913;-94
2022/04/07 01:33:35;;;;;;;;;;;9.20;95.40;;;;;;2092975;28;19909;-95
2022/04/07 01:34:54;;;;;;;;;;;9.20;95.50;;;;;;2095394;28;19917;-96
2022/04/07 01:36:14;;;;;;;;;;;9.10;95.50;;;;;;2095659;28;19913;-95
2022/04/07 01:37:34;;;;;;;;;;;9.10;95.50;;;;;;2098077;28;19909;-95
2022/04/07 01:38:54;;;;;;;;;;;9.10;95.70;;;;;;2102317;28;19952;-96
2022/04/07 01:40:14;;;;;;;;;;;9.00;95.60;;;;;;2101008;28;19916;-95
2022/04/07 01:41:35;;;;;;;;;;;9.00;95.60;;;;;;2101334;28;19912;-94
2022/04/07 01:42:54;;;;;;;;;;;9.00;95.70;;;;;;2094497;28;19908;-95
2022/04/07 01:44:15;;;;;;;;;;;9.00;95.80;;;;;;2083287;28;19917;-96
2022/04/07 01:45:34;;;;;;;;;;;9.00;95.80;;;;;;2099700;28;19956;-96
2022/04/07 01:46:54;;;;;;;;;;;9.00;95.80;;;;;;2108466;28;19913;-96
2022/04/07 01:48:15;;;;;;;;;;;8.90;95.70;;;;;;2102780;28;19908;-95
2022/04/07 01:49:35;;;;;;;;;;;8.90;95.80;;;;;;2095661;28;19908;-94
2022/04/07 01:50:55;;;;;;;;;;;8.90;95.80;;;;;;2092793;28;19917;-95
2022/04/07 01:52:14;;;;;;;;;;;8.90;95.90;;;;;;2095854;28;19908;-95
2022/04/07 01:53:34;;;;;;;;;;;8.90;95.90;;;;;;2098570;28;19908;-94
2022/04/07 01:54:54;;;;;;;;;;;8.90;95.80;;;;;;2096916;28;19999;-96
2022/04/07 01:56:13;;;;;;;;;;;8.90;95.90;;;;;;2090761;28;19913;-96
2022/04/07 01:57:32;;;;;;;;;;;8.80;95.90;;;;;;2091127;28;19913;-96
2022/04/07 01:58:52;;;;;;;;;;;8.80;95.90;;;;;;2095030;28;19917;-94
2022/04/07 02:00:11;;;;;;;;;;;8.80;95.90;;;;;;2094638;28;19960;-96
2022/04/07 02:01:30;;;;;;;;;;;8.80;96.00;;;;;;2094191;28;19942;-96
2022/04/07 02:02:50;;;;;;;;;;;8.80;95.90;;;;;;2093952;28;19960;-95
2022/04/07 02:04:09;;;;;;;;;;;8.80;95.90;;;;;;2101238;28;19913;-96
2022/04/07 02:05:28;;;;;;;;;;;8.80;95.90;;;;;;2099982;28;19913;-92
2022/04/07 02:06:48;;;;;;;;;;;8.80;96.00;;;;;;2096044;28;19913;-96
2022/04/07 02:08:07;;;;;;;;;;;8.80;95.90;;;;;;2095427;28;19913;-96
2022/04/07 02:09:26;;;;;;;;;;;8.80;96.00;;;;;;2096953;28;19916;-95
2022/04/07 02:10:45;;;;;;;;;;;8.80;96.00;;;;;;2095103;28;19916;-96
2022/04/07 02:12:05;;;;;;;;;;;8.80;96.00;;;;;;2098778;28;20489;-95
2022/04/07 02:13:24;;;;;;;;;;;8.80;96.00;;;;;;2099932;28;19917;-96
2022/04/07 02:14:43;;;;;;;;;;;8.80;95.90;;;;;;2103504;28;19917;-93
2022/04/07 02:16:04;;;;;;;;;;;8.80;96.00;;;;;;2103826;28;19916;-95
2022/04/07 02:17:23;;;;;;;;;;;8.80;96.00;;;;;;2098605;28;19948;-95
2022/04/07 02:18:43;;;;;;;;;;;8.80;96.00;;;;;;2094398;28;19920;-95
2022/04/07 02:20:04;;;;;;;;;;;8.80;96.00;;;;;;2094990;28;19921;-95
2022/04/07 02:21:24;;;;;;;;;;;8.80;96.00;;;;;;2093708;28;20130;-93
2022/04/07 02:22:43;;;;;;;;;;;8.80;96.10;;;;;;2097826;28;19912;-94
2022/04/07 02:24:05;;;;;;;;;;;8.80;96.10;;;;;;2094002;28;19916;-96
2022/04/07 02:25:27;;;;;;;;;;;8.80;96.20;;;;;;2091679;28;19917;-96
2022/04/07 02:26:46;;;;;;;;;;;8.80;96.10;;;;;;2083826;28;19913;-95
2022/04/07 02:28:05;;;;;;;;;;;8.80;96.10;;;;;;2086904;28;20313;-95
2022/04/07 02:29:25;;;;;;;;;;;8.80;96.10;;;;;;2095476;28;19921;-96
2022/04/07 02:30:45;;;;;;;;;;;8.80;96.20;;;;;;2093385;28;20363;-94
2022/04/07 02:32:05;;;;;;;;;;;8.80;96.10;;;;;;2094873;28;19909;-94
2022/04/07 02:33:24;;;;;;;;;;;8.80;96.20;;;;;;2092928;28;19913;-94
2022/04/07 02:34:43;;;;;;;;;;;8.80;96.20;;;;;;2096678;28;19992;-96
2022/04/07 02:36:03;;;;;;;;;;;8.80;96.20;;;;;;2096701;28;19917;-96
2022/04/07 02:37:27;;;;;;;;;;;8.80;96.20;;;;;;2099492;28;19925;-95
2022/04/07 02:38:46;;;;;;;;;;;8.80;96.10;;;;;;2094567;28;19921;-96
2022/04/07 02:40:06;;;;;;;;;;;8.80;96.20;;;;;;2092591;28;19956;-95
2022/04/07 02:41:26;;;;;;;;;;;8.70;96.20;;;;;;2101307;28;19964;-82
2022/04/07 02:42:45;;;;;;;;;;;8.80;96.20;;;;;;2101137;28;19901;-84
2022/04/07 02:44:05;;;;;;;;;;;8.80;96.20;;;;;;2092814;28;19917;-96
2022/04/07 02:45:24;;;;;;;;;;;8.70;96.30;;;;;;2097390;28;19901;-79
2022/04/07 02:46:43;;;;;;;;;;;8.80;96.30;;;;;;2105144;28;19952;-90
2022/04/07 02:48:03;;;;;;;;;;;8.70;96.30;;;;;;2099254;28;20003;-94
2022/04/07 02:49:22;;;;;;;;;;;8.70;96.20;;;;;;2095965;28;19979;-95
2022/04/07 02:50:41;;;;;;;;;;;8.70;96.20;;;;;;2091481;28;20350;-95
2022/04/07 02:52:00;;;;;;;;;;;8.70;96.20;;;;;;2095076;28;19913;-95
2022/04/07 02:53:20;;;;;;;;;;;8.70;96.30;;;;;;2095395;28;19975;-95
2022/04/07 02:54:39;;;;;;;;;;;8.70;96.40;;;;;;2101010;28;19897;-85
2022/04/07 02:55:59;;;;;;;;;;;8.70;96.30;;;;;;2103268;28;19917;-95
2022/04/07 02:57:22;;;;;;;;;;;8.70;96.30;;;;;;2097611;28;19913;-95
2022/04/07 02:58:41;;;;;;;;;;;8.70;96.40;;;;;;2093924;28;19916;-94
2022/04/07 03:00:01;;;;;;;;;;;8.70;96.30;;;;;;2083514;28;19917;-95
2022/04/07 03:01:20;;;;;;;;;;;8.70;96.30;;;;;;2092858;28;19908;-95
2022/04/07 03:02:39;;;;;;;;;;;8.70;96.30;;;;;;2099912;28;19940;-96
2022/04/07 03:03:59;;;;;;;;;;;8.70;96.30;;;;;;2098694;28;19928;-95
2022/04/07 03:05:18;;;;;;;;;;;8.70;96.30;;;;;;2095494;28;19917;-95
2022/04/07 03:06:37;;;;;;;;;;;8.70;96.30;;;;;;2093604;28;19912;-95
2022/04/07 03:07:57;;;;;;;;;;;8.70;96.30;;;;;;2095429;28;19971;-94
2022/04/07 03:09:16;;;;;;;;;;;8.70;96.40;;;;;;2100781;28;19905;-94
2022/04/07 03:10:36;;;;;;;;;;;8.70;96.40;;;;;;2105203;28;19976;-96
2022/04/07 03:11:55;;;;;;;;;;;8.70;96.30;;;;;;2101047;28;19912;-96
2022/04/07 03:13:15;;;;;;;;;;;8.70;96.30;;;;;;2093613;28;19912;-95
2022/04/07 03:14:34;;;;;;;;;;;8.70;96.30;;;;;;2097356;28;19922;-96
2022/04/07 03:15:53;;;;;;;;;;;8.70;96.30;;;;;;2093763;28;19909;-95
2022/04/07 03:17:12;;;;;;;;;;;8.70;96.40;;;;;;2094975;28;19916;-95
2022/04/07 03:18:32;;;;;;;;;;;8.70;96.30;;;;;;2094749;28;19921;-96
2022/04/07 03:19:52;;;;;;;;;;;8.70;96.30;;;;;;2096749;28;19921;-93
2022/04/07 03:21:11;;;;;;;;;;;8.70;96.30;;;;;;2097720;28;20400;-96
2022/04/07 03:22:31;;;;;;;;;;;8.80;96.30;;;;;;2098644;28;19913;-94
2022/04/07 03:23:50;;;;;;;;;;;8.80;96.30;;;;;;2103818;28;19921;-95
2022/04/07 03:25:09;;;;;;;;;;;8.80;96.30;;;;;;2097001;28;19917;-94
2022/04/07 03:26:28;;;;;;;;;;;8.80;96.30;;;;;;2104097;28;19913;-95
2022/04/07 03:27:48;;;;;;;;;;;8.80;96.20;;;;;;2107392;28;20428;-86
2022/04/07 03:29:07;;;;;;;;;;;8.80;96.20;;;;;;2092149;28;19913;-94
2022/04/07 03:30:26;;;;;;;;;;;8.80;96.20;;;;;;2092479;28;19912;-96
2022/04/07 03:31:46;;;;;;;;;;;8.80;96.20;;;;;;2089581;28;20298;-94
2022/04/07 03:33:08;;;;;;;;;;;8.80;96.20;;;;;;2097705;28;19912;-94
2022/04/07 03:34:28;;;;;;;;;;;8.80;96.20;;;;;;2094028;28;19920;-94
2022/04/07 03:35:47;;;;;;;;;;;8.90;96.20;;;;;;2094703;28;20362;-95
2022/04/07 03:37:06;;;;;;;;;;;8.90;96.20;;;;;;2105807;28;19916;-92
2022/04/07 03:38:26;;;;;;;;;;;8.90;96.20;;;;;;2100339;28;20386;-95
2022/04/07 03:39:45;;;;;;;;;;;8.90;96.10;;;;;;2097829;28;20366;-94
2022/04/07 03:41:08;;;;;;;;;;;8.90;96.10;;;;;;2097329;28;19913;-94
2022/04/07 03:42:27;;;;;;;;;;;8.90;96.10;;;;;;2097523;28;19916;-95
2022/04/07 03:43:46;;;;;;;;;;;8.90;96.00;;;;;;2086878;28;19917;-95
2022/04/07 03:45:05;;;;;;;;;;;8.90;96.10;;;;;;2090218;28;19917;-95
2022/04/07 03:46:25;;;;;;;;;;;8.90;96.00;;;;;;2087447;28;20318;-94
2022/04/07 03:47:44;;;;;;;;;;;8.90;96.00;;;;;;2096710;28;19920;-96
2022/04/07 03:49:03;;;;;;;;;;;8.90;96.00;;;;;;2106724;28;19908;-94
2022/04/07 03:50:23;;;;;;;;;;;8.90;96.00;;;;;;2092500;28;19913;-94
2022/04/07 03:51:42;;;;;;;;;;;9.00;96.00;;;;;;2098407;28;19976;-96
2022/04/07 03:53:02;;;;;;;;;;;8.90;96.00;;;;;;2100344;28;19912;-92
2022/04/07 03:54:21;;;;;;;;;;;8.90;96.00;;;;;;2099140;28;20398;-93
2022/04/07 03:55:40;;;;;;;;;;;8.90;96.00;;;;;;2089143;28;19949;-96
2022/04/07 03:56:59;;;;;;;;;;;8.90;96.00;;;;;;2104542;28;19916;-96
2022/04/07 03:58:18;;;;;;;;;;;8.90;96.00;;;;;;2094190;28;19917;-95
2022/04/07 03:59:39;;;;;;;;;;;8.90;96.00;;;;;;2091499;28;19913;-96
2022/04/07 04:00:59;;;;;;;;;;;8.90;96.00;;;;;;2091656;28;19913;-96
2022/04/07 04:02:18;;;;;;;;;;;8.80;96.00;;;;;;2100949;28;19916;-96
2022/04/07 04:03:37;;;;;;;;;;;8.80;96.00;;;;;;2104565;28;19913;-95
2022/04/07 04:04:56;;;;;;;;;;;8.80;96.10;;;;;;2097761;28;19917;-95
2022/04/07 04:06:16;;;;;;;;;;;8.80;96.10;;;;;;2089026;28;19992;-95
2022/04/07 04:07:35;;;;;;;;;;;8.80;96.10;;;;;;2098940;28;19917;-95
2022/04/07 04:08:55;;;;;;;;;;;8.80;96.10;;;;;;2105171;28;19908;-96
2022/04/07 04:10:14;;;;;;;;;;;8.80;96.20;;;;;;2095137;28;19912;-95
2022/04/07 04:11:34;;;;;;;;;;;8.70;96.10;;;;;;2099407;28;19916;-95
2022/04/07 04:12:53;;;;;;;;;;;8.80;96.30;;;;;;2103166;28;19942;-95
2022/04/07 04:14:12;;;;;;;;;;;8.80;96.20;;;;;;2104094;28;19959;-96
2022/04/07 04:15:32;;;;;;;;;;;8.80;96.20;;;;;;2100176;28;19971;-96
2022/04/07 04:16:51;;;;;;;;;;;8.80;96.10;;;;;;2091591;28;19917;-96
2022/04/07 04:18:10;;;;;;;;;;;8.80;96.20;;;;;;2084920;28;19960;-96
2022/04/07 04:19:33;;;;;;;;;;;8.80;96.10;;;;;;2098431;28;19976;-96
2022/04/07 04:20:58;;;;;;;;;;;8.80;96.20;;;;;;2093851;28;19925;-96
2022/04/07 04:22:18;;;;;;;;;;;8.80;96.20;;;;;;2103986;28;19917;-95
2022/04/07 04:23:38;;;;;;;;;;;8.80;96.20;;;;;;2099727;28;19917;-95
2022/04/07 04:24:57;;;;;;;;;;;8.80;96.20;;;;;;2100217;28;19972;-95
2022/04/07 04:26:17;;;;;;;;;;;8.80;96.20;;;;;;2096857;28;19956;-96
2022/04/07 04:27:36;;;;;;;;;;;8.80;96.20;;;;;;2095573;28;19901;-80
2022/04/07 04:28:55;;;;;;;;;;;8.80;96.10;;;;;;2105517;28;19932;-86
2022/04/07 04:30:15;;;;;;;;;;;8.80;96.10;;;;;;2097612;28;19921;-95
2022/04/07 04:31:35;;;;;;;;;;;8.80;96.10;;;;;;2102916;28;19908;-87
2022/04/07 04:32:54;;;;;;;;;;;8.90;96.20;;;;;;2109178;28;19964;-83
2022/04/07 04:34:13;;;;;;;;;;;8.80;96.10;;;;;;2096191;28;20391;-94
2022/04/07 04:35:33;;;;;;;;;;;8.80;96.10;;;;;;2105364;28;19924;-96
2022/04/07 04:36:52;;;;;;;;;;;8.80;96.00;;;;;;2111051;28;19916;-95
2022/04/07 04:38:12;;;;;;;;;;;8.80;96.00;;;;;;2105753;28;19916;-94
2022/04/07 04:39:31;;;;;;;;;;;8.80;96.00;;;;;;2100379;28;19920;-96
2022/04/07 04:40:50;;;;;;;;;;;8.80;96.00;;;;;;2105370;28;19904;-92
2022/04/07 04:42:11;;;;;;;;;;;8.80;96.00;;;;;;2104780;28;19920;-96
2022/04/07 04:43:31;;;;;;;;;;;8.80;96.00;;;;;;2092351;28;20016;-96
2022/04/07 04:44:50;;;;;;;;;;;8.90;96.00;;;;;;2084857;28;19917;-96
2022/04/07 04:46:09;;;;;;;;;;;8.80;96.00;;;;;;2097381;28;19913;-96
2022/04/07 04:47:30;;;;;;;;;;;8.80;96.00;;;;;;2096398;28;20310;-93
2022/04/07 04:48:49;;;;;;;;;;;8.80;96.00;;;;;;2100313;28;19956;-94
2022/04/07 04:50:08;;;;;;;;;;;8.90;95.90;;;;;;2091541;28;19917;-94
2022/04/07 04:51:27;;;;;;;;;;;8.90;95.90;;;;;;2093636;28;20359;-95
2022/04/07 04:52:46;;;;;;;;;;;8.90;95.90;;;;;;2085918;28;19999;-96
2022/04/07 04:54:06;;;;;;;;;;;8.90;95.90;;;;;;2090588;28;19917;-95
2022/04/07 04:55:25;;;;;;;;;;;8.90;95.80;;;;;;2094852;28;19921;-94
2022/04/07 04:56:44;;;;;;;;;;;8.90;95.80;;;;;;2081753;28;19913;-94
2022/04/07 04:58:04;;;;;;;;;;;8.90;95.80;;;;;;2086110;28;19909;-92
2022/04/07 04:59:23;;;;;;;;;;;9.00;95.70;;;;;;2095441;28;19921;-93
2022/04/07 05:00:43;;;;;;;;;;;9.00;95.70;;;;;;2103911;28;19920;-96
2022/04/07 05:02:04;;;;;;;;;;;9.00;95.70;;;;;;2102271;28;19920;-95
2022/04/07 05:03:24;;;;;;;;;;;9.00;95.60;;;;;;2101532;28;19924;-94
2022/04/07 05:04:43;;;;;;;;;;;9.00;95.60;;;;;;2090682;28;19925;-94
2022/04/07 05:06:02;;;;;;;;;;;9.00;95.60;;;;;;2089450;28;19922;-93
2022/04/07 05:07:21;;;;;;;;;;;9.00;95.60;;;;;;2095240;28;19952;-93
2022/04/07 05:08:41;;;;;;;;;;;9.00;95.60;;;;;;2094487;28;20357;-94
2022/04/07 05:10:02;;;;;;;;;;;9.00;95.50;;;;;;2086205;28;19916;-95
2022/04/07 05:11:21;;;;;;;;;;;9.10;95.50;;;;;;2100002;28;19909;-93
2022/04/07 05:12:40;;;;;;;;;;;9.00;95.50;;;;;;2083358;28;19921;-94
2022/04/07 05:14:00;;;;;;;;;;;9.10;95.50;;;;;;2086733;28;20386;-96
2022/04/07 05:15:20;;;;;;;;;;;9.00;95.40;;;;;;2093516;28;19908;-94
2022/04/07 05:16:39;;;;;;;;;;;9.10;95.40;;;;;;2091338;28;19913;-93
2022/04/07 05:17:58;;;;;;;;;;;9.10;95.40;;;;;;2110887;28;19912;-95
2022/04/07 05:19:17;;;;;;;;;;;9.10;95.40;;;;;;2101079;28;19924;-94
2022/04/07 05:20:37;;;;;;;;;;;9.10;95.40;;;;;;2098177;28;20322;-95
2022/04/07 05:21:56;;;;;;;;;;;9.10;95.40;;;;;;2100912;28;19912;-95
2022/04/07 05:23:16;;;;;;;;;;;9.10;95.40;;;;;;2101531;28;19912;-96
2022/04/07 05:24:35;;;;;;;;;;;9.10;95.40;;;;;;2099265;28;19948;-96
2022/04/07 05:25:54;;;;;;;;;;;9.10;95.40;;;;;;2095859;28;19913;-93
2022/04/07 05:27:15;;;;;;;;;;;9.10;95.30;;;;;;2093168;28;19909;-94
2022/04/07 05:28:34;;;;;;;;;;;9.10;95.30;;;;;;2097505;28;19913;-96
2022/04/07 05:29:54;;;;;;;;;;;9.10;95.30;;;;;;2092688;28;19917;-95
2022/04/07 05:31:13;;;;;;;;;;;9.10;95.30;;;;;;2089960;28;19920;-95
2022/04/07 05:32:34;;;;;;;;;;;9.10;95.30;;;;;;2095355;28;20367;-92
2022/04/07 05:33:53;;;;;;;;;;;9.10;95.30;;;;;;2094902;28;20359;-95
2022/04/07 05:35:13;;;;;;;;;;;9.10;95.30;;;;;;2100642;28;20374;-80
2022/04/07 05:36:32;;;;;;;;;;;9.10;95.30;;;;;;2087829;28;19917;-91
2022/04/07 05:37:56;;;;;;;;;;;9.10;95.30;;;;;;2096549;28;19944;-93
2022/04/07 05:39:15;;;;;;;;;;;9.10;95.30;;;;;;2101201;28;19921;-91
2022/04/07 05:40:34;;;;;;;;;;;9.10;95.30;;;;;;2084909;28;19917;-92
2022/04/07 05:41:53;;;;;;;;;;;9.10;95.30;;;;;;2082094;28;19914;-92
2022/04/07 05:43:13;;;;;;;;;;;9.10;95.30;;;;;;2077703;28;20383;-92
2022/04/07 05:44:32;;;;;;;;;;;9.10;95.30;;;;;;2088595;28;19991;-91
2022/04/07 05:45:52;;;;;;;;;;;9.10;95.30;;;;;;2091461;28;19948;-91
2022/04/07 05:47:12;;;;;;;;;;;9.10;95.30;;;;;;2099394;28;19913;-93
2022/04/07 05:48:30;;;;;;;;;;;9.20;95.30;;;;;;2089524;28;19948;-93
2022/04/07 05:49:52;;;;;;;;;;;9.20;95.30;;;;;;2086231;28;19916;-92
2022/04/07 05:51:12;;;;;;;;;;;9.20;95.30;;;;;;2088442;28;19917;-93
2022/04/07 05:52:31;;;;;;;;;;;9.20;95.30;;;;;;2080453;28;20303;-93
2022/04/07 05:53:50;;;;;;;;;;;9.20;95.40;;;;;;2077145;28;19913;-92
2022/04/07 05:55:09;;;;;;;;;;;9.10;95.30;;;;;;2085793;28;20306;-91
2022/04/07 05:56:28;;;;;;;;;;;9.10;95.30;;;;;;2086833;28;19917;-93
2022/04/07 05:57:49;;;;;;;;;;;9.10;95.40;;;;;;2080893;28;19917;-93
2022/04/07 05:59:08;;;;;;;;;;;9.20;95.40;;;;;;2086083;28;19921;-94
2022/04/07 06:00:27;;;;;;;;;;;9.20;95.40;;;;;;2089873;28;19913;-92
2022/04/07 06:01:46;;;;;;;;;;;9.20;95.40;;;;;;2092048;28;20352;-94
2022/04/07 06:03:05;;;;;;;;;;;9.20;95.40;;;;;;2089853;28;19921;-94
2022/04/07 06:04:24;;;;;;;;;;;9.20;95.50;;;;;;2092299;28;19924;-92
2022/04/07 06:05:44;;;;;;;;;;;9.20;95.50;;;;;;2095149;28;19916;-92
2022/04/07 06:07:03;;;;;;;;;;;9.20;95.50;;;;;;2100568;28;19912;-91
2022/04/07 06:08:22;;;;;;;;;;;9.10;95.50;;;;;;2096604;28;20275;-94
2022/04/07 06:09:41;;;;;;;;;;;9.10;95.50;;;;;;2095518;28;19917;-92
2022/04/07 06:11:01;;;;;;;;;;;9.10;95.80;;;;;;2097276;28;19925;-93
2022/04/07 06:12:20;;;;;;;;;;;9.10;95.60;;;;;;2099688;28;19916;-94
2022/04/07 06:13:39;;;;;;;;;;;9.10;95.60;;;;;;2090562;28;19921;-93
2022/04/07 06:14:58;;;;;;;;;;;9.10;95.60;;;;;;2104271;28;19901;-94
2022/04/07 06:16:18;;;;;;;;;;;9.10;95.60;;;;;;2094762;28;19948;-93
2022/04/07 06:17:41;;;;;;;;;;;9.10;95.70;;;;;;2094960;28;20298;-93
2022/04/07 06:19:00;;;;;;;;;;;9.00;95.60;;;;;;2101603;28;19909;-93
2022/04/07 06:20:21;;;;;;;;;;;9.00;95.70;;;;;;2102625;28;19956;-94
2022/04/07 06:21:40;;;;;;;;;;;9.00;95.70;;;;;;2091476;28;19905;-94
2022/04/07 06:23:04;;;;;;;;;;;9.00;95.70;;;;;;2094799;28;19909;-95
2022/04/07 06:24:23;;;;;;;;;;;9.00;95.80;;;;;;2096800;28;19913;-93
2022/04/07 06:25:42;;;;;;;;;;;9.00;95.90;;;;;;2102991;28;19917;-95
2022/04/07 06:27:02;;;;;;;;;;;9.00;95.90;;;;;;2097586;28;20423;-85
2022/04/07 06:28:22;;;;;;;;;;;9.00;95.90;;;;;;2095107;28;19905;-85
2022/04/07 06:29:42;;;;;;;;;;;8.90;96.00;;;;;;2090092;28;19921;-95
2022/04/07 06:31:01;;;;;;;;;;;8.90;95.90;;;;;;2088977;28;19921;-96
2022/04/07 06:32:26;;;;;;;;;;;8.90;96.10;;;;;;2094674;28;19913;-94
2022/04/07 06:33:46;;;;;;;;;;;8.90;96.10;;;;;;2100649;28;19912;-95
2022/04/07 06:35:06;;;;;;;;;;;8.90;96.00;;;;;;2088718;28;19917;-94
2022/04/07 06:36:26;;;;;;;;;;;8.90;96.00;;;;;;2091704;28;19920;-94
2022/04/07 06:37:48;;;;;;;;;;;8.90;96.00;;;;;;2095184;28;19913;-93
2022/04/07 06:39:07;;;;;;;;;;;8.90;96.10;;;;;;2094284;28;19921;-95
2022/04/07 06:40:28;;;;;;;;;;;8.90;96.10;;;;;;2100691;28;19956;-96
2022/04/07 06:41:47;;;;;;;;;;;8.90;96.10;;;;;;2095061;28;19912;-93
2022/04/07 06:43:06;;;;;;;;;;;8.90;96.10;;;;;;2101639;28;20382;-94
2022/04/07 06:44:25;;;;;;;;;;;8.90;96.10;;;;;;2102194;28;19955;-95
2022/04/07 06:45:45;;;;;;;;;;;8.90;96.20;;;;;;2101485;28;19920;-95
2022/04/07 06:47:04;;;;;;;;;;;8.90;96.20;;;;;;2097521;28;19917;-93
2022/04/07 06:48:23;;;;;;;;;;;8.90;96.20;;;;;;2097487;28;19912;-94
2022/04/07 06:49:42;;;;;;;;;;;8.90;96.20;;;;;;2094612;28;19913;-95
2022/04/07 06:51:01;;;;;;;;;;;8.90;96.20;;;;;;2092003;28;20301;-93
2022/04/07 06:52:21;;;;;;;;;;;8.90;96.20;;;;;;2087855;28;19916;-93
2022/04/07 06:53:40;;;;;;;;;;;8.80;96.30;;;;;;2099610;28;19913;-93
2022/04/07 06:55:00;;;;;;;;;;;8.90;96.40;;;;;;2097127;28;19913;-94
2022/04/07 06:56:19;;;;;;;;;;;8.90;96.30;;;;;;2101391;28;19912;-94
2022/04/07 06:57:47;;;;;;;;;;;8.80;96.30;;;;;;2093407;28;19916;-93
2022/04/07 06:59:06;;;;;;;;;;;8.80;96.20;;;;;;2098794;28;19921;-95
2022/04/07 07:00:29;;;;;;;;;;;8.80;96.20;;;;;;2083564;28;19957;-95
2022/04/07 07:01:48;;;;;;;;;;;8.80;96.20;;;;;;2098073;28;19913;-95
2022/04/07 07:03:07;;;;;;;;;;;8.80;96.30;;;;;;2093026;28;19916;-93
2022/04/07 07:04:27;;;;;;;;;;;8.80;96.30;;;;;;2099557;28;19917;-95
2022/04/07 07:05:46;;;;;;;;;;;8.70;96.00;;;;;;2101589;28;19940;-96
2022/04/07 07:07:05;;;;;;;;;;;8.60;95.60;;;;;;2102203;28;19912;-94
2022/04/07 07:08:26;;;;;;;;;;;8.40;95.70;;;;;;2091136;28;19924;-95
2022/04/07 07:09:46;;;;;;;;;;;8.10;95.60;;;;;;2101523;28;19916;-95
2022/04/07 07:11:05;;;;;;;;;;;7.90;95.80;;;;;;2101128;28;19916;-94
2022/04/07 07:12:25;;;;;;;;;;;7.70;95.90;;;;;;2094900;28;19913;-93
2022/04/07 07:13:44;;;;;;;;;;;7.50;95.80;;;;;;2104283;28;19917;-95
2022/04/07 07:15:04;;;;;;;;;;;7.30;95.90;;;;;;2100199;28;19960;-95
2022/04/07 07:16:23;;;;;;;;;;;7.10;96.00;;;;;;2106438;28;19900;-95
2022/04/07 07:17:43;;;;;;;;;;;7.00;96.10;;;;;;2090936;28;19960;-95
2022/04/07 07:19:03;;;;;;;;;;;6.90;96.30;;;;;;2095613;28;20414;-96
2022/04/07 07:20:23;;;;;;;;;;;6.70;96.40;;;;;;2085988;28;19925;-95
2022/04/07 07:21:42;;;;;;;;;;;6.70;96.50;;;;;;2088312;28;19925;-96
2022/04/07 07:23:01;;;;;;;;;;;6.60;96.50;;;;;;2091015;28;19917;-96
2022/04/07 07:24:20;;;;;;;;;;;6.60;96.60;;;;;;2097470;28;19908;-95
2022/04/07 07:25:39;;;;;;;;;;;6.50;96.70;;;;;;2097406;28;19913;-96
2022/04/07 07:26:59;;;;;;;;;;;6.50;96.70;;;;;;2106368;28;19917;-96
2022/04/07 07:28:18;;;;;;;;;;;6.50;96.80;;;;;;2106817;28;19917;-96
2022/04/07 07:29:37;;;;;;;;;;;6.50;96.80;;;;;;2100823;28;19908;-95
2022/04/07 07:31:03;;;;;;;;;;;6.50;96.90;;;;;;2101302;28;19913;-96
2022/04/07 07:32:23;;;;;;;;;;;6.50;96.80;;;;;;2097106;28;19917;-96
2022/04/07 07:33:42;;;;;;;;;;;6.50;96.80;;;;;;2098926;28;19916;-96
2022/04/07 07:35:01;;;;;;;;;;;6.50;96.80;;;;;;2101684;28;19972;-96
2022/04/07 07:36:20;;;;;;;;;;;6.50;96.80;;;;;;2102521;28;19912;-96
2022/04/07 07:37:49;;;;;;;;;;;6.50;96.80;;;;;;2105316;28;19916;-95
2022/04/07 07:39:10;;;;;;;;;;;6.50;96.80;;;;;;2095351;28;19921;-96
2022/04/07 07:40:31;;;;;;;;;;;6.50;96.80;;;;;;2091451;28;19968;-95
2022/04/07 07:41:50;;;;;;;;;;;6.50;96.80;;;;;;2106673;28;19912;-95
2022/04/07 07:43:09;;;;;;;;;;;6.50;96.80;;;;;;2103061;28;19905;-96
2022/04/07 07:44:29;;;;;;;;;;;6.50;96.70;;;;;;2100997;28;19901;-95
2022/04/07 07:45:51;;;;;;;;;;;6.50;96.70;;;;;;2097091;28;19917;-95
2022/04/07 07:48:51;;;;;;;;;;;6.40;96.70;;;;;;2098277;28;19917;-95
2022/04/07 07:50:13;;;;;;;;;;;6.50;96.70;;;;;;2098768;28;19924;-95
2022/04/07 07:51:33;;;;;;;;;;;6.50;96.80;;;;;;2106061;28;19916;-96
2022/04/07 07:52:53;;;;;;;;;;;6.50;96.80;;;;;;2098437;28;19921;-95